createdAt,value
2019-02-19T00:00:56.464Z,100549.14
2019-02-19T00:03:26.103Z,100551.39
2019-02-19T00:05:55.712Z,100549.63
2019-02-19T00:08:25.384Z,100551.77
2019-02-19T00:10:54.936Z,100550.72
2019-02-19T00:13:24.493Z,100553.48
2019-02-19T00:15:54.075Z,100548.75
2019-02-19T00:18:23.752Z,100548.17
2019-02-19T00:20:53.399Z,100543.31
2019-02-19T00:23:23.060Z,100541.81
2019-02-19T00:25:52.688Z,100538.41
2019-02-19T00:28:22.207Z,100538.66
2019-02-19T00:30:51.818Z,100535.08
2019-02-19T00:33:21.415Z,100530.26
2019-02-19T00:35:50.973Z,100525.29
2019-02-19T00:38:20.616Z,100530.73
2019-02-19T00:40:50.295Z,100525.08
2019-02-19T00:43:20.667Z,100527.63
2019-02-19T00:45:50.317Z,100528.30
2019-02-19T00:48:19.877Z,100531.38
2019-02-19T00:50:49.545Z,100522.68
2019-02-19T00:53:19.136Z,100516.77
2019-02-19T00:55:48.687Z,100513.61
2019-02-19T00:58:18.464Z,100517.95
2019-02-19T01:00:48.186Z,100510.81
2019-02-19T01:03:17.779Z,100506.84
2019-02-19T01:05:47.349Z,100505.89
2019-02-19T01:08:16.993Z,100496.89
2019-02-19T01:10:46.658Z,100497.70
2019-02-19T01:13:16.218Z,100496.38
2019-02-19T01:15:45.954Z,100490.94
2019-02-19T01:18:15.574Z,100483.94
2019-02-19T01:20:45.184Z,100490.94
2019-02-19T01:23:14.803Z,100487.71
2019-02-19T01:25:44.382Z,100482.23
2019-02-19T01:28:13.901Z,100479.79
2019-02-19T01:30:43.595Z,100476.89
2019-02-19T01:33:13.169Z,100478.84
2019-02-19T01:35:42.790Z,100486.09
2019-02-19T01:38:12.326Z,100479.09
2019-02-19T01:40:41.951Z,100481.60
2019-02-19T01:43:11.489Z,100479.53
2019-02-19T01:45:41.137Z,100482.51
2019-02-19T01:48:10.662Z,100481.20
2019-02-19T01:50:40.201Z,100477.33
2019-02-19T01:53:09.839Z,100480.48
2019-02-19T01:55:39.402Z,100478.23
2019-02-19T01:58:08.932Z,100475.86
2019-02-19T02:00:38.489Z,100479.26
2019-02-19T02:03:08.127Z,100483.95
2019-02-19T02:05:37.669Z,100473.36
2019-02-19T02:08:07.378Z,100471.61
2019-02-19T02:10:37.077Z,100468.86
2019-02-19T02:13:06.651Z,100469.53
2019-02-19T02:15:42.525Z,100473.96
2019-02-19T02:18:07.656Z,100474.58
2019-02-19T02:20:37.255Z,100469.05
2019-02-19T02:23:06.904Z,100469.86
2019-02-19T02:25:36.442Z,100475.92
2019-02-19T02:28:06.075Z,100472.23
2019-02-19T02:30:35.704Z,100470.09
2019-02-19T02:33:05.291Z,100464.37
2019-02-19T02:35:34.929Z,100465.98
2019-02-19T02:38:04.516Z,100463.38
2019-02-19T02:40:34.125Z,100462.59
2019-02-19T02:43:03.828Z,100464.84
2019-02-19T02:45:33.526Z,100465.61
2019-02-19T02:48:03.067Z,100471.85
2019-02-19T02:50:32.621Z,100471.48
2019-02-19T02:53:02.188Z,100466.27
2019-02-19T02:55:31.768Z,100470.81
2019-02-19T02:58:01.317Z,100467.50
2019-02-19T03:00:30.937Z,100469.20
2019-02-19T03:03:00.469Z,100466.56
2019-02-19T03:05:30.094Z,100470.15
2019-02-19T03:08:02.971Z,100465.61
2019-02-19T03:10:32.615Z,100467.31
2019-02-19T03:13:02.151Z,100474.50
2019-02-19T03:15:31.734Z,100471.33
2019-02-19T03:18:01.300Z,100466.12
2019-02-19T03:20:31.020Z,100473.03
2019-02-19T03:23:00.568Z,100471.14
2019-02-19T03:25:30.126Z,100467.45
2019-02-19T03:27:59.746Z,100469.85
2019-02-19T03:30:29.267Z,100473.03
2019-02-19T03:32:58.842Z,100468.72
2019-02-19T03:35:28.487Z,100467.34
2019-02-19T03:37:58.034Z,100471.40
2019-02-19T03:40:27.558Z,100469.33
2019-02-19T03:42:57.125Z,100467.44
2019-02-19T03:45:26.674Z,100463.56
2019-02-19T03:47:56.273Z,100459.02
2019-02-19T03:50:25.806Z,100463.84
2019-02-19T03:52:55.351Z,100459.91
2019-02-19T03:55:24.909Z,100459.69
2019-02-19T03:57:54.441Z,100463.53
2019-02-19T04:00:23.962Z,100458.96
2019-02-19T04:02:53.522Z,100469.64
2019-02-19T04:05:23.075Z,100470.68
2019-02-19T04:07:52.612Z,100468.81
2019-02-19T04:10:22.282Z,100471.39
2019-02-19T04:12:51.832Z,100467.70
2019-02-19T04:15:21.450Z,100471.84
2019-02-19T04:17:50.989Z,100472.25
2019-02-19T04:20:20.519Z,100474.11
2019-02-19T04:22:50.073Z,100473.85
2019-02-19T04:25:19.648Z,100480.01
2019-02-19T04:27:49.180Z,100477.53
2019-02-19T04:30:18.732Z,100470.73
2019-02-19T04:32:48.286Z,100475.27
2019-02-19T04:35:17.917Z,100477.91
2019-02-19T04:37:47.455Z,100478.64
2019-02-19T04:40:17.028Z,100477.39
2019-02-19T04:42:46.584Z,100471.91
2019-02-19T04:45:16.132Z,100472.09
2019-02-19T04:47:45.688Z,100472.57
2019-02-19T04:50:15.252Z,100468.59
2019-02-19T04:52:44.890Z,100469.33
2019-02-19T04:55:14.459Z,100470.55
2019-02-19T04:57:44.014Z,100468.79
2019-02-19T05:00:13.838Z,100466.33
2019-02-19T05:02:43.375Z,100470.02
2019-02-19T05:05:12.899Z,100471.02
2019-02-19T05:07:42.466Z,100465.64
2019-02-19T05:10:12.009Z,100465.73
2019-02-19T05:12:41.571Z,100466.11
2019-02-19T05:15:11.128Z,100467.87
2019-02-19T05:17:40.684Z,100474.77
2019-02-19T05:20:10.247Z,100475.62
2019-02-19T05:22:39.779Z,100473.22
2019-02-19T05:25:09.351Z,100472.80
2019-02-19T05:27:38.947Z,100472.89
2019-02-19T05:30:08.680Z,100479.03
2019-02-19T05:32:38.221Z,100485.17
2019-02-19T05:35:07.787Z,100486.41
2019-02-19T05:37:37.425Z,100486.36
2019-02-19T05:40:07.002Z,100496.96
2019-02-19T05:42:36.679Z,100497.95
2019-02-19T05:45:06.521Z,100505.81
2019-02-19T05:47:36.074Z,100514.73
2019-02-19T05:50:05.957Z,100513.53
2019-02-19T05:52:35.609Z,100513.80
2019-02-19T05:55:05.411Z,100523.44
2019-02-19T05:57:34.956Z,100520.62
2019-02-19T06:00:04.546Z,100526.11
2019-02-19T06:02:34.086Z,100517.66
2019-02-19T06:05:05.758Z,100532.63
2019-02-19T06:07:35.135Z,100530.15
2019-02-19T06:10:05.292Z,100531.21
2019-02-19T06:12:34.959Z,100533.77
2019-02-19T06:15:05.105Z,100529.22
2019-02-19T06:17:34.796Z,100536.61
2019-02-19T06:20:04.603Z,100529.13
2019-02-19T06:22:34.347Z,100530.70
2019-02-19T06:25:03.945Z,100531.81
2019-02-19T06:27:33.635Z,100533.38
2019-02-19T06:30:03.278Z,100532.77
2019-02-19T06:32:32.835Z,100531.07
2019-02-19T06:35:02.479Z,100527.57
2019-02-19T06:37:32.012Z,100531.42
2019-02-19T06:40:01.693Z,100530.33
2019-02-19T06:42:31.255Z,100537.33
2019-02-19T06:45:00.823Z,100540.17
2019-02-19T06:47:30.391Z,100531.23
2019-02-19T06:50:00.055Z,100537.89
2019-02-19T06:52:29.708Z,100539.89
2019-02-19T06:54:59.304Z,100536.68
2019-02-19T06:57:29.065Z,100537.80
2019-02-19T06:59:58.724Z,100536.39
2019-02-19T07:02:47.175Z,100537.98
2019-02-19T07:05:21.507Z,100529.62
2019-02-19T07:07:51.036Z,100538.19
2019-02-19T07:10:20.586Z,100532.75
2019-02-19T07:12:50.171Z,100528.03
2019-02-19T07:15:19.708Z,100529.05
2019-02-19T07:17:49.374Z,100523.30
2019-02-19T07:20:19.564Z,100529.09
2019-02-19T07:22:49.261Z,100525.20
2019-02-19T07:25:18.885Z,100521.06
2019-02-19T07:27:48.401Z,100523.19
2019-02-19T07:30:18.003Z,100514.80
2019-02-19T07:32:47.699Z,100513.00
2019-02-19T07:35:17.310Z,100506.14
2019-02-19T07:37:46.835Z,100501.73
2019-02-19T07:40:17.469Z,100509.73
2019-02-19T07:42:47.154Z,100503.47
2019-02-19T07:45:16.720Z,100507.23
2019-02-19T07:47:46.463Z,100507.31
2019-02-19T07:50:16.020Z,100510.33
2019-02-19T07:52:45.579Z,100506.77
2019-02-19T07:55:15.333Z,100505.34
2019-02-19T07:57:44.994Z,100506.60
2019-02-19T08:00:14.237Z,100498.77
2019-02-19T08:02:43.900Z,100498.25
2019-02-19T08:05:13.652Z,100497.51
2019-02-19T08:07:43.731Z,100489.41
2019-02-19T08:10:13.333Z,100486.72
2019-02-19T08:12:42.892Z,100487.20
2019-02-19T08:15:12.599Z,100486.01
2019-02-19T08:17:42.166Z,100485.13
2019-02-19T08:20:15.861Z,100482.82
2019-02-19T08:22:43.336Z,100483.72
2019-02-19T08:25:12.977Z,100481.55
2019-02-19T08:27:42.510Z,100486.28
2019-02-19T08:30:12.189Z,100483.45
2019-02-19T08:32:41.753Z,100488.47
2019-02-19T08:35:11.417Z,100485.45
2019-02-19T08:37:40.957Z,100482.25
2019-02-19T08:40:10.670Z,100479.22
2019-02-19T08:42:40.296Z,100479.37
2019-02-19T08:45:10.043Z,100480.87
2019-02-19T08:47:42.743Z,100481.91
2019-02-19T08:50:11.166Z,100478.02
2019-02-19T08:52:40.804Z,100470.73
2019-02-19T08:55:10.375Z,100474.70
2019-02-19T08:57:40.027Z,100475.83
2019-02-19T09:00:10.432Z,100478.48
2019-02-19T09:02:40.150Z,100476.36
2019-02-19T09:05:09.841Z,100474.02
2019-02-19T09:07:39.452Z,100476.44
2019-02-19T09:10:09.932Z,100476.16
2019-02-19T09:12:39.585Z,100477.30
2019-02-19T09:15:11.253Z,100473.80
2019-02-19T09:17:40.850Z,100473.70
2019-02-19T09:20:10.478Z,100475.55
2019-02-19T09:22:40.074Z,100474.84
2019-02-19T09:25:09.646Z,100479.05
2019-02-19T09:27:39.282Z,100477.23
2019-02-19T09:30:10.639Z,100480.19
2019-02-19T09:32:40.174Z,100471.94
2019-02-19T09:35:09.976Z,100478.11
2019-02-19T09:37:39.519Z,100474.18
2019-02-19T09:40:09.494Z,100471.25
2019-02-19T09:42:39.096Z,100471.27
2019-02-19T09:45:08.807Z,100467.66
2019-02-19T09:47:38.401Z,100467.49
2019-02-19T09:50:08.416Z,100464.55
2019-02-19T09:52:38.121Z,100462.98
2019-02-19T09:55:07.686Z,100452.61
2019-02-19T09:57:37.377Z,100452.09
2019-02-19T10:00:08.910Z,100454.69
2019-02-19T10:02:38.474Z,100445.81
2019-02-19T10:05:09.477Z,100444.22
2019-02-19T10:07:39.178Z,100427.55
2019-02-19T10:10:11.145Z,100426.23
2019-02-19T10:12:40.750Z,100425.96
2019-02-19T10:15:11.587Z,100423.84
2019-02-19T10:17:41.170Z,100418.71
2019-02-19T10:20:10.870Z,100408.06
2019-02-19T10:22:40.493Z,100409.89
2019-02-19T10:25:11.146Z,100398.59
2019-02-19T10:27:40.772Z,100400.05
2019-02-19T10:30:12.600Z,100395.28
2019-02-19T10:32:42.316Z,100388.86
2019-02-19T10:35:12.244Z,100386.36
2019-02-19T10:37:41.916Z,100381.75
2019-02-19T10:40:13.510Z,100376.42
2019-02-19T10:42:43.078Z,100375.55
2019-02-19T10:45:15.353Z,100371.95
2019-02-19T10:47:44.902Z,100369.25
2019-02-19T10:50:14.466Z,100365.01
2019-02-19T10:52:44.151Z,100356.80
2019-02-19T10:55:13.828Z,100354.77
2019-02-19T10:57:43.576Z,100355.98
2019-02-19T11:00:16.407Z,100354.81
2019-02-19T11:02:46.100Z,100344.02
2019-02-19T11:05:15.759Z,100346.84
2019-02-19T11:07:45.387Z,100344.78
2019-02-19T11:10:14.973Z,100342.63
2019-02-19T11:12:44.527Z,100340.08
2019-02-19T11:15:14.139Z,100329.40
2019-02-19T11:17:43.860Z,100332.73
2019-02-19T11:20:13.725Z,100327.31
2019-02-19T11:22:43.314Z,100327.66
2019-02-19T11:25:13.249Z,100315.11
2019-02-19T11:27:42.782Z,100316.10
2019-02-19T11:30:14.674Z,100314.42
2019-02-19T11:32:44.331Z,100311.05
2019-02-19T11:35:13.915Z,100309.44
2019-02-19T11:37:43.518Z,100304.53
2019-02-19T11:40:14.028Z,100299.64
2019-02-19T11:42:43.620Z,100296.91
2019-02-19T11:45:14.161Z,100297.03
2019-02-19T11:47:43.926Z,100292.97
2019-02-19T11:50:13.537Z,100287.05
2019-02-19T11:52:43.244Z,100283.02
2019-02-19T11:55:13.442Z,100275.48
2019-02-19T11:57:42.974Z,100275.82
2019-02-19T12:00:16.187Z,100276.95
2019-02-19T12:02:45.813Z,100268.19
2019-02-19T12:05:15.426Z,100263.33
2019-02-19T12:07:44.978Z,100265.82
2019-02-19T12:10:14.599Z,100265.66
2019-02-19T12:12:44.195Z,100261.79
2019-02-19T12:15:14.037Z,100264.94
2019-02-19T12:17:43.586Z,100250.95
2019-02-19T12:20:13.175Z,100245.59
2019-02-19T12:22:42.729Z,100239.34
2019-02-19T12:25:12.307Z,100243.27
2019-02-19T12:27:41.974Z,100233.87
2019-02-19T12:30:13.037Z,100233.76
2019-02-19T12:32:42.587Z,100231.65
2019-02-19T12:35:12.125Z,100227.38
2019-02-19T12:37:41.689Z,100219.90
2019-02-19T12:40:11.627Z,100220.66
2019-02-19T12:42:41.262Z,100219.95
2019-02-19T12:45:11.592Z,100218.72
2019-02-19T12:47:41.272Z,100213.55
2019-02-19T12:50:12.245Z,100213.45
2019-02-19T12:52:41.874Z,100210.35
2019-02-19T12:55:11.849Z,100204.44
2019-02-19T12:57:41.400Z,100200.81
2019-02-19T13:00:13.279Z,100196.53
2019-02-19T13:02:44.123Z,100202.11
2019-02-19T13:05:14.200Z,100203.91
2019-02-19T13:07:43.833Z,100195.58
2019-02-19T13:10:13.369Z,100201.35
2019-02-19T13:12:42.934Z,100194.73
2019-02-19T13:15:13.934Z,100197.25
2019-02-19T13:17:43.564Z,100196.54
2019-02-19T13:20:13.965Z,100195.39
2019-02-19T13:22:43.645Z,100193.61
2019-02-19T13:25:13.365Z,100185.75
2019-02-19T13:27:42.998Z,100191.62
2019-02-19T13:30:14.417Z,100189.30
2019-02-19T13:32:43.900Z,100181.80
2019-02-19T13:35:13.841Z,100185.15
2019-02-19T13:37:43.496Z,100184.97
2019-02-19T13:40:13.493Z,100182.03
2019-02-19T13:42:43.139Z,100177.56
2019-02-19T13:45:13.293Z,100179.13
2019-02-19T13:47:42.860Z,100175.27
2019-02-19T13:50:15.154Z,100171.21
2019-02-19T13:52:52.431Z,100164.41
2019-02-19T13:55:25.229Z,100165.36
2019-02-19T13:57:54.886Z,100161.30
2019-02-19T14:00:25.525Z,100164.31
2019-02-19T14:02:55.094Z,100159.10
2019-02-19T14:05:24.795Z,100161.70
2019-02-19T14:07:54.491Z,100157.30
2019-02-19T14:10:24.115Z,100157.73
2019-02-19T14:12:53.677Z,100159.70
2019-02-19T14:15:47.791Z,100154.69
2019-02-19T14:18:21.982Z,100156.28
2019-02-19T14:21:14.678Z,100149.59
2019-02-19T14:24:01.511Z,100146.26
2019-02-19T14:26:52.643Z,100143.63
2019-02-19T14:29:41.919Z,100142.89
2019-02-19T14:32:28.997Z,100149.58
2019-02-19T14:35:15.717Z,100146.52
2019-02-19T14:38:04.070Z,100146.72
2019-02-19T14:40:51.124Z,100144.20
2019-02-19T14:43:38.179Z,100139.93
2019-02-19T14:46:25.313Z,100146.79
2019-02-19T14:49:13.754Z,100142.08
2019-02-19T14:52:00.965Z,100138.92
2019-02-19T14:55:01.683Z,100144.98
2019-02-19T14:57:42.984Z,100139.72
2019-02-19T15:00:30.303Z,100137.52
2019-02-19T15:03:17.375Z,100131.25
2019-02-19T15:06:13.176Z,100136.09
2019-02-19T15:08:55.045Z,100131.96
2019-02-19T15:11:41.157Z,100131.62
2019-02-19T15:14:38.466Z,100131.49
2019-02-19T15:17:25.448Z,100134.52
2019-02-19T15:20:28.928Z,100135.12
2019-02-19T15:23:15.799Z,100133.33
2019-02-19T15:26:04.209Z,100137.55
2019-02-19T15:28:55.348Z,100135.57
2019-02-19T15:31:43.703Z,100133.55
2019-02-19T15:34:47.355Z,100135.48
2019-02-19T15:37:29.433Z,100136.52
2019-02-19T15:40:17.825Z,100140.58
2019-02-19T15:43:09.041Z,100139.82
2019-02-19T15:46:12.562Z,100134.79
2019-02-19T15:48:59.709Z,100139.33
2019-02-19T15:51:46.661Z,100146.83
2019-02-19T15:54:24.973Z,100142.90
2019-02-19T15:57:16.199Z,100144.51
2019-02-19T16:00:13.648Z,100151.80
2019-02-19T16:02:57.712Z,100151.50
2019-02-19T16:05:37.026Z,100154.38
2019-02-19T16:08:36.259Z,100156.50
2019-02-19T16:11:30.904Z,100157.62
2019-02-19T16:14:18.094Z,100156.20
2019-02-19T16:17:18.609Z,100156.33
2019-02-19T16:20:12.732Z,100157.10
2019-02-19T16:22:52.102Z,100168.34
2019-02-19T16:25:35.679Z,100169.91
2019-02-19T16:28:13.813Z,100168.88
2019-02-19T16:31:14.121Z,100170.66
2019-02-19T16:34:05.583Z,100168.88
2019-02-19T16:36:46.219Z,100168.44
2019-02-19T16:39:32.535Z,100168.16
2019-02-19T16:42:20.929Z,100162.98
2019-02-19T16:44:57.460Z,100166.52
2019-02-19T16:47:45.941Z,100169.22
2019-02-19T16:50:37.201Z,100167.04
2019-02-19T16:53:28.367Z,100163.14
2019-02-19T16:56:15.611Z,100150.36
2019-02-19T16:59:22.293Z,100166.14
2019-02-19T17:02:05.523Z,100163.77
2019-02-19T17:04:54.147Z,100164.75
2019-02-19T17:07:41.076Z,100162.34
2019-02-19T17:10:41.629Z,100172.02
2019-02-19T17:13:24.953Z,100164.59
2019-02-19T17:16:06.454Z,100165.22
2019-02-19T17:18:57.831Z,100171.20
2019-02-19T17:21:44.903Z,100164.12
2019-02-19T17:24:42.612Z,100167.80
2019-02-19T17:27:34.353Z,100169.75
2019-02-19T17:30:22.933Z,100174.91
2019-02-19T17:33:09.760Z,100169.96
2019-02-19T17:36:13.288Z,100160.73
2019-02-19T17:38:55.960Z,100164.54
2019-02-19T17:41:50.247Z,100165.30
2019-02-19T17:44:37.466Z,100162.23
2019-02-19T17:47:35.176Z,100162.03
2019-02-19T17:50:12.036Z,100164.20
2019-02-19T17:53:01.087Z,100167.67
2019-02-19T17:55:46.382Z,100162.13
2019-02-19T17:58:40.887Z,100161.56
2019-02-19T18:01:16.088Z,100167.20
2019-02-19T18:04:16.811Z,100164.17
2019-02-19T18:07:14.371Z,100159.47
2019-02-19T18:10:14.930Z,100162.84
2019-02-19T18:13:01.338Z,100160.16
2019-02-19T18:15:59.141Z,100161.78
2019-02-19T18:18:59.860Z,100159.37
2019-02-19T18:21:29.432Z,100160.96
2019-02-19T18:23:59.065Z,100156.58
2019-02-19T18:26:28.674Z,100156.58
2019-02-19T18:28:58.392Z,100156.92
2019-02-19T18:31:28.074Z,100166.95
2019-02-19T18:33:57.776Z,100162.65
2019-02-19T18:36:27.491Z,100163.27
2019-02-19T18:38:57.204Z,100164.06
2019-02-19T18:41:26.864Z,100160.87
2019-02-19T18:43:56.406Z,100159.18
2019-02-19T18:46:25.997Z,100157.09
2019-02-19T18:48:55.570Z,100155.75
2019-02-19T18:51:25.121Z,100150.52
2019-02-19T18:53:54.774Z,100153.98
2019-02-19T18:56:24.320Z,100148.98
2019-02-19T18:58:53.901Z,100150.52
2019-02-19T19:01:23.457Z,100142.64
2019-02-19T19:03:52.985Z,100144.34
2019-02-19T19:06:22.574Z,100137.71
2019-02-19T19:08:52.348Z,100142.69
2019-02-19T19:11:21.990Z,100141.49
2019-02-19T19:13:51.530Z,100143.06
2019-02-19T19:16:21.202Z,100144.95
2019-02-19T19:18:50.839Z,100148.20
2019-02-19T19:21:20.388Z,100145.94
2019-02-19T19:23:50.042Z,100147.51
2019-02-19T19:26:19.621Z,100144.45
2019-02-19T19:28:49.200Z,100149.81
2019-02-19T19:31:18.774Z,100107.05
2019-02-19T19:33:48.320Z,100144.83
2019-02-19T19:36:17.888Z,100150.45
2019-02-19T19:38:47.439Z,100150.09
2019-02-19T19:41:17.065Z,100148.09
2019-02-19T19:43:46.593Z,100150.09
2019-02-19T19:46:16.135Z,100149.37
2019-02-19T19:48:46.057Z,100149.20
2019-02-19T19:51:17.414Z,100155.65
2019-02-19T19:53:47.291Z,100148.47
2019-02-19T19:56:16.877Z,100140.16
2019-02-19T19:58:46.626Z,100144.75
2019-02-19T20:01:16.246Z,100139.60
2019-02-19T20:03:45.831Z,100138.84
2019-02-19T20:06:15.469Z,100132.48
2019-02-19T20:08:45.083Z,100135.50
2019-02-19T20:11:14.672Z,100134.42
2019-02-19T20:13:44.243Z,100142.41
2019-02-19T20:16:13.951Z,100148.33
2019-02-19T20:18:43.497Z,100147.69
2019-02-19T20:21:13.258Z,100141.61
2019-02-19T20:23:42.827Z,100135.32
2019-02-19T20:26:12.419Z,100133.47
2019-02-19T20:28:42.018Z,100137.82
2019-02-19T20:31:11.655Z,100134.86
2019-02-19T20:33:41.304Z,100135.47
2019-02-19T20:36:10.936Z,100135.58
2019-02-19T20:38:40.525Z,100134.16
2019-02-19T20:41:10.131Z,100137.22
2019-02-19T20:43:39.722Z,100128.37
2019-02-19T20:46:11.020Z,100128.03
2019-02-19T20:48:41.997Z,100122.30
2019-02-19T20:51:13.465Z,100126.34
2019-02-19T20:53:43.212Z,100119.20
2019-02-19T20:56:12.940Z,100114.03
2019-02-19T20:58:42.815Z,100113.73
2019-02-19T21:01:12.664Z,100113.20
2019-02-19T21:03:44.105Z,100113.73
2019-02-19T21:06:14.137Z,100116.41
2019-02-19T21:08:43.913Z,100118.80
2019-02-19T21:11:14.257Z,100113.38
2019-02-19T21:13:44.049Z,100126.95
2019-02-19T21:16:13.802Z,100116.86
2019-02-19T21:18:43.671Z,100124.92
2019-02-19T21:21:13.467Z,100118.71
2019-02-19T21:23:43.204Z,100114.03
2019-02-19T21:26:12.916Z,100122.66
2019-02-19T21:28:42.807Z,100113.95
2019-02-19T21:31:12.576Z,100118.17
2019-02-19T21:33:42.435Z,100113.25
2019-02-19T21:36:12.162Z,100114.45
2019-02-19T21:38:41.987Z,100113.47
2019-02-19T21:41:11.727Z,100117.12
2019-02-19T21:43:41.587Z,100116.41
2019-02-19T21:46:11.365Z,100114.31
2019-02-19T21:48:47.940Z,100113.73
2019-02-19T21:51:12.811Z,100116.84
2019-02-19T21:53:42.503Z,100113.47
2019-02-19T21:56:12.297Z,100112.63
2019-02-19T21:58:42.090Z,100111.42
2019-02-19T22:01:11.838Z,100106.04
2019-02-19T22:03:41.618Z,100100.27
2019-02-19T22:06:11.436Z,100104.05
2019-02-19T22:08:41.379Z,100101.82
2019-02-19T22:11:11.240Z,100096.70
2019-02-19T22:13:41.005Z,100096.22
2019-02-19T22:16:10.853Z,100095.38
2019-02-19T22:18:40.695Z,100098.94
2019-02-19T22:21:29.290Z,100093.55
2019-02-19T22:23:59.093Z,100093.54
2019-02-19T22:26:28.913Z,100091.23
2019-02-19T22:28:58.656Z,100089.45
2019-02-19T22:31:28.533Z,100091.41
2019-02-19T22:33:58.421Z,100094.64
2019-02-19T22:36:28.119Z,100091.13
2019-02-19T22:38:58.181Z,100095.03
2019-02-19T22:41:27.927Z,100096.83
2019-02-19T22:43:57.744Z,100099.79
2019-02-19T22:46:27.589Z,100094.66
2019-02-19T22:48:57.424Z,100088.52
2019-02-19T22:51:27.223Z,100093.36
2019-02-19T22:54:28.211Z,100096.61
2019-02-19T22:56:58.043Z,100096.67
2019-02-19T22:59:27.907Z,100091.80
2019-02-19T23:02:02.432Z,100092.77
2019-02-19T23:04:32.445Z,100097.16
2019-02-19T23:07:02.331Z,100097.59
2019-02-19T23:09:32.105Z,100099.18
2019-02-19T23:12:01.962Z,100103.11
2019-02-19T23:14:31.774Z,100100.97
2019-02-19T23:17:01.580Z,100096.61
2019-02-19T23:19:31.352Z,100093.50
2019-02-19T23:22:01.121Z,100098.92
2019-02-19T23:24:30.918Z,100101.06
2019-02-19T23:27:00.758Z,100100.99
2019-02-19T23:29:30.624Z,100105.86
2019-02-19T23:32:00.454Z,100101.87
2019-02-19T23:34:30.288Z,100098.78
2019-02-19T23:37:11.740Z,100101.27
2019-02-19T23:39:43.861Z,100101.98
2019-02-19T23:42:12.949Z,100099.58
2019-02-19T23:44:42.681Z,100102.86
2019-02-19T23:47:12.409Z,100102.42
2019-02-19T23:49:42.136Z,100106.49
2019-02-19T23:52:11.905Z,100110.61
2019-02-19T23:54:41.686Z,100118.00
2019-02-19T23:57:11.382Z,100119.31
2019-02-19T23:59:41.141Z,100120.28
